createdAt,value
2022-10-15T00:02:18.407Z,10.93
2022-10-15T00:04:50.956Z,10.94
2022-10-15T00:07:23.937Z,10.95
2022-10-15T00:09:56.644Z,10.98
2022-10-15T00:12:29.174Z,11.01
2022-10-15T00:15:02.099Z,11.08
2022-10-15T00:17:36.047Z,11.14
2022-10-15T00:20:11.119Z,11.20
2022-10-15T00:22:43.805Z,11.26
2022-10-15T00:25:16.483Z,11.33
2022-10-15T00:27:48.962Z,11.37
2022-10-15T00:30:21.585Z,11.41
2022-10-15T00:32:54.104Z,11.42
2022-10-15T00:35:26.613Z,11.43
2022-10-15T00:37:59.148Z,11.41
2022-10-15T00:40:31.701Z,11.46
2022-10-15T00:43:07.871Z,11.47
2022-10-15T00:45:40.491Z,11.48
2022-10-15T00:48:12.999Z,11.51
2022-10-15T00:50:46.006Z,11.56
2022-10-15T00:53:18.618Z,11.56
2022-10-15T00:55:51.499Z,11.59
2022-10-15T00:58:28.529Z,11.64
2022-10-15T01:01:01.144Z,11.66
2022-10-15T01:03:35.811Z,11.70
2022-10-15T01:06:08.439Z,11.70
2022-10-15T01:08:41.058Z,11.71
2022-10-15T01:11:48.992Z,11.73
2022-10-15T01:14:44.573Z,11.84
2022-10-15T01:17:42.468Z,11.84
2022-10-15T01:20:37.184Z,11.87
2022-10-15T01:24:12.867Z,11.88
2022-10-15T01:27:28.686Z,12.00
2022-10-15T01:30:25.800Z,12.01
2022-10-15T01:33:26.218Z,12.02
2022-10-15T01:36:39.895Z,12.05
2022-10-15T01:39:25.468Z,12.12
2022-10-15T01:42:12.733Z,12.16
2022-10-15T01:44:53.978Z,12.18
2022-10-15T01:47:43.658Z,12.22
2022-10-15T01:50:20.294Z,12.21
2022-10-15T01:52:56.951Z,12.26
2022-10-15T01:55:32.174Z,12.23
2022-10-15T01:58:06.083Z,12.21
2022-10-15T02:00:43.411Z,12.24
2022-10-15T02:03:16.151Z,12.36
2022-10-15T02:06:00.726Z,12.37
2022-10-15T02:09:20.678Z,12.41
2022-10-15T02:12:28.928Z,12.41
2022-10-15T02:15:11.301Z,12.45
2022-10-15T02:18:06.906Z,12.47
2022-10-15T02:21:19.941Z,12.48
2022-10-15T02:24:20.077Z,12.43
2022-10-15T02:26:57.493Z,12.21
2022-10-15T02:29:35.041Z,12.41
2022-10-15T02:32:11.529Z,12.42
2022-10-15T02:34:47.022Z,12.34
2022-10-15T02:37:24.519Z,12.39
2022-10-15T02:39:57.057Z,12.41
2022-10-15T02:42:30.189Z,12.38
2022-10-15T02:45:02.746Z,12.37
2022-10-15T02:47:35.383Z,12.43
2022-10-15T02:50:08.400Z,12.42
2022-10-15T02:52:40.938Z,12.44
2022-10-15T02:55:13.579Z,12.48
2022-10-15T02:57:46.127Z,12.48
2022-10-15T03:00:18.846Z,12.47
2022-10-15T03:02:51.463Z,12.54
2022-10-15T03:05:24.189Z,12.55
2022-10-15T03:07:58.969Z,12.58
2022-10-15T03:10:31.529Z,12.47
2022-10-15T03:13:05.473Z,12.35
2022-10-15T03:15:38.167Z,12.47
2022-10-15T03:18:10.748Z,12.48
2022-10-15T03:20:43.385Z,12.48
2022-10-15T03:23:17.340Z,12.26
2022-10-15T03:25:50.070Z,12.46
2022-10-15T03:28:23.107Z,12.50
2022-10-15T03:30:55.636Z,12.43
2022-10-15T03:33:28.659Z,12.44
2022-10-15T03:36:01.506Z,12.54
2022-10-15T03:38:34.406Z,12.53
2022-10-15T03:41:06.928Z,12.57
2022-10-15T03:43:41.950Z,12.56
2022-10-15T03:46:16.547Z,12.62
2022-10-15T03:48:50.543Z,12.61
2022-10-15T03:51:25.619Z,12.58
2022-10-15T03:54:00.535Z,12.63
2022-10-15T03:56:33.071Z,12.52
2022-10-15T03:59:05.576Z,12.56
2022-10-15T04:01:38.132Z,12.53
2022-10-15T04:04:12.679Z,12.46
2022-10-15T04:06:47.764Z,12.51
2022-10-15T04:09:20.409Z,12.52
2022-10-15T04:11:52.961Z,12.63
2022-10-15T04:14:25.495Z,12.56
2022-10-15T04:16:59.035Z,12.48
2022-10-15T04:19:31.855Z,12.52
2022-10-15T04:22:04.639Z,12.56
2022-10-15T04:24:37.222Z,12.56
2022-10-15T04:27:10.518Z,12.59
2022-10-15T04:29:43.018Z,12.61
2022-10-15T04:32:16.797Z,12.57
2022-10-15T04:34:50.073Z,12.62
2022-10-15T04:37:22.862Z,12.78
2022-10-15T04:39:55.757Z,12.91
2022-10-15T04:42:32.069Z,12.76
2022-10-15T04:45:05.745Z,12.87
2022-10-15T04:47:38.320Z,12.85
2022-10-15T04:50:11.093Z,13.00
2022-10-15T04:52:43.576Z,12.98
2022-10-15T04:55:16.096Z,12.96
2022-10-15T04:57:48.637Z,12.97
2022-10-15T05:00:21.180Z,12.93
2022-10-15T05:02:53.818Z,12.84
2022-10-15T05:05:26.388Z,12.71
2022-10-15T05:08:04.206Z,12.89
2022-10-15T05:10:36.706Z,12.93
2022-10-15T05:13:10.007Z,12.96
2022-10-15T05:15:42.441Z,13.00
2022-10-15T05:18:14.905Z,12.93
2022-10-15T05:20:47.406Z,12.76
2022-10-15T05:23:19.934Z,12.83
2022-10-15T05:25:54.088Z,12.83
2022-10-15T05:28:26.949Z,12.91
2022-10-15T05:31:17.527Z,12.83
2022-10-15T05:33:54.080Z,12.86
2022-10-15T05:36:29.727Z,12.79
2022-10-15T05:39:10.312Z,12.86
2022-10-15T05:41:42.897Z,12.80
2022-10-15T05:44:15.555Z,12.72
2022-10-15T05:46:48.045Z,12.78
2022-10-15T05:49:20.741Z,12.84
2022-10-15T05:54:27.950Z,12.88
2022-10-15T05:57:00.599Z,12.84
2022-10-15T05:59:33.121Z,13.03
2022-10-15T06:02:05.778Z,13.11
2022-10-15T06:04:38.290Z,13.06
2022-10-15T06:07:10.720Z,12.98
2022-10-15T06:09:43.275Z,13.01
2022-10-15T06:12:15.808Z,12.95
2022-10-15T06:14:48.300Z,12.93
2022-10-15T06:17:21.204Z,12.84
2022-10-15T06:19:53.982Z,12.73
2022-10-15T06:22:26.530Z,12.85
2022-10-15T06:24:59.076Z,12.84
2022-10-15T06:27:33.609Z,12.93
2022-10-15T06:30:08.131Z,12.83
2022-10-15T06:32:46.439Z,12.92
2022-10-15T06:35:21.442Z,12.82
2022-10-15T06:37:55.032Z,12.94
2022-10-15T06:40:30.202Z,12.96
2022-10-15T06:43:11.070Z,13.02
2022-10-15T06:45:44.821Z,13.07
2022-10-15T06:48:18.563Z,12.87
2022-10-15T06:50:51.196Z,13.16
2022-10-15T06:53:23.630Z,12.93
2022-10-15T06:55:58.289Z,12.95
2022-10-15T06:58:31.090Z,12.93
2022-10-15T07:01:06.662Z,13.07
2022-10-15T07:03:39.248Z,12.98
2022-10-15T07:06:11.781Z,12.91
2022-10-15T07:08:45.191Z,13.04
2022-10-15T07:11:18.329Z,12.92
2022-10-15T07:13:50.806Z,12.92
2022-10-15T07:16:24.039Z,12.94
2022-10-15T07:18:56.660Z,12.90
2022-10-15T07:21:29.402Z,12.90
2022-10-15T07:24:02.359Z,12.95
2022-10-15T07:26:35.231Z,13.08
2022-10-15T07:29:08.097Z,12.96
2022-10-15T07:31:41.310Z,13.18
2022-10-15T07:34:14.630Z,13.24
2022-10-15T07:36:47.386Z,13.31
2022-10-15T07:39:20.243Z,13.58
2022-10-15T07:41:53.015Z,13.41
2022-10-15T07:44:25.646Z,13.51
2022-10-15T07:46:58.285Z,13.57
2022-10-15T07:49:30.971Z,13.60
2022-10-15T07:52:03.644Z,13.62
2022-10-15T07:54:36.771Z,13.73
2022-10-15T07:57:09.541Z,13.85
2022-10-15T07:59:42.306Z,13.83
2022-10-15T08:02:18.291Z,14.04
2022-10-15T08:05:01.768Z,14.16
2022-10-15T08:07:52.901Z,14.14
2022-10-15T08:10:38.688Z,14.31
2022-10-15T08:13:33.576Z,14.29
2022-10-15T08:16:39.857Z,14.52
2022-10-15T08:19:22.728Z,14.63
2022-10-15T08:22:12.232Z,14.81
2022-10-15T08:24:58.380Z,15.05
2022-10-15T08:27:48.038Z,15.36
2022-10-15T08:31:04.160Z,15.31
2022-10-15T08:33:49.443Z,15.35
2022-10-15T08:36:38.231Z,15.32
2022-10-15T08:42:28.627Z,15.42
2022-10-15T08:45:38.605Z,15.33
2022-10-15T08:48:53.184Z,15.49
2022-10-15T08:52:00.157Z,15.52
2022-10-15T08:54:38.859Z,15.72
2022-10-15T08:57:32.436Z,15.77
2022-10-15T09:00:45.174Z,15.79
2022-10-15T09:04:09.749Z,15.70
2022-10-15T09:07:16.116Z,16.02
2022-10-15T09:10:24.588Z,15.96
2022-10-15T09:13:16.327Z,16.16
2022-10-15T09:16:33.150Z,15.86
2022-10-15T09:19:55.862Z,15.73
2022-10-15T09:22:46.354Z,15.77
2022-10-15T09:25:39.329Z,15.74
2022-10-15T09:28:42.609Z,15.75
2022-10-15T09:31:36.583Z,15.78
2022-10-15T09:38:30.505Z,15.84
2022-10-15T09:44:31.464Z,15.83
2022-10-15T09:47:44.681Z,15.72
2022-10-15T09:50:30.834Z,15.58
2022-10-15T09:54:06.877Z,15.44
2022-10-15T09:56:55.283Z,15.37
2022-10-15T09:59:36.351Z,15.64
2022-10-15T10:02:20.774Z,15.75
2022-10-15T10:04:54.091Z,15.70
2022-10-15T10:07:34.439Z,15.79
2022-10-15T10:10:30.214Z,15.80
2022-10-15T10:13:05.548Z,16.05
2022-10-15T10:15:42.312Z,16.06
2022-10-15T10:18:24.885Z,15.93
2022-10-15T10:21:05.465Z,15.99
2022-10-15T10:23:39.485Z,15.85
2022-10-15T10:26:13.330Z,15.94
2022-10-15T10:29:04.652Z,15.97
2022-10-15T10:31:44.844Z,15.97
2022-10-15T10:34:37.617Z,16.06
2022-10-15T10:37:11.435Z,16.16
2022-10-15T10:39:45.773Z,16.10
2022-10-15T10:42:19.377Z,16.31
2022-10-15T10:44:53.681Z,16.22
2022-10-15T10:47:27.464Z,16.46
2022-10-15T10:50:00.174Z,16.62
2022-10-15T10:52:35.517Z,16.56
2022-10-15T10:55:19.638Z,16.63
2022-10-15T10:58:00.050Z,16.55
2022-10-15T11:00:45.803Z,16.50
2022-10-15T11:03:39.537Z,16.83
2022-10-15T11:06:11.940Z,16.51
2022-10-15T11:09:03.008Z,16.63
2022-10-15T11:12:34.052Z,16.73
2022-10-15T11:15:36.576Z,16.88
2022-10-15T11:18:54.364Z,17.09
2022-10-15T11:21:37.805Z,17.05
2022-10-15T11:24:48.725Z,17.32
2022-10-15T11:27:51.345Z,17.05
2022-10-15T11:30:46.414Z,17.37
2022-10-15T11:34:03.654Z,17.46
2022-10-15T11:37:22.078Z,17.17
2022-10-15T11:40:01.344Z,17.11
2022-10-15T11:42:50.670Z,17.03
2022-10-15T11:46:01.950Z,16.84
2022-10-15T11:49:21.547Z,17.16
2022-10-15T11:52:29.291Z,16.85
2022-10-15T11:55:11.880Z,17.00
2022-10-15T11:57:49.148Z,17.23
2022-10-15T12:00:40.443Z,16.99
2022-10-15T12:03:45.623Z,17.05
2022-10-15T12:06:23.802Z,17.42
2022-10-15T12:09:00.015Z,17.37
2022-10-15T12:11:53.392Z,17.91
2022-10-15T12:14:59.584Z,18.01
2022-10-15T12:18:23.373Z,18.31
2022-10-15T12:20:58.627Z,18.22
2022-10-15T12:23:37.428Z,18.49
2022-10-15T12:26:25.785Z,18.49
2022-10-15T12:29:03.063Z,18.47
2022-10-15T12:31:53.234Z,18.74
2022-10-15T12:34:41.742Z,18.79
2022-10-15T12:37:19.023Z,18.56
2022-10-15T12:40:04.797Z,18.93
2022-10-15T12:42:40.583Z,18.76
2022-10-15T12:45:31.952Z,19.02
2022-10-15T12:48:06.593Z,18.98
2022-10-15T12:50:39.393Z,18.84
2022-10-15T12:53:32.552Z,18.91
2022-10-15T12:56:12.225Z,19.30
2022-10-15T12:58:47.687Z,19.28
2022-10-15T13:01:20.735Z,19.37
2022-10-15T13:03:58.222Z,19.35
2022-10-15T13:06:36.684Z,19.27
2022-10-15T13:09:23.298Z,19.22
2022-10-15T13:12:00.459Z,19.37
2022-10-15T13:14:55.257Z,19.12
2022-10-15T13:17:29.188Z,19.21
2022-10-15T13:20:08.166Z,19.29
2022-10-15T13:22:41.074Z,19.39
2022-10-15T13:25:22.358Z,19.51
2022-10-15T13:28:03.291Z,19.57
2022-10-15T13:30:36.503Z,19.63
2022-10-15T13:33:12.504Z,19.65
2022-10-15T13:42:41.857Z,18.88
2022-10-15T13:45:20.940Z,19.05
2022-10-15T13:48:11.012Z,18.72
2022-10-15T13:50:56.537Z,18.62
2022-10-15T13:53:47.941Z,18.37
2022-10-15T13:56:34.485Z,18.54
2022-10-15T13:59:50.363Z,17.94
2022-10-15T14:02:43.074Z,17.83
2022-10-15T14:09:05.150Z,17.13
2022-10-15T14:12:17.646Z,17.28
2022-10-15T14:14:51.683Z,17.07
2022-10-15T14:17:30.892Z,17.21
2022-10-15T14:20:49.396Z,17.03
2022-10-15T14:23:31.747Z,16.80
2022-10-15T14:27:43.785Z,16.78
2022-10-15T14:30:35.658Z,16.93
2022-10-15T14:33:50.378Z,16.98
2022-10-15T14:36:57.043Z,17.09
2022-10-15T14:43:12.968Z,17.21
2022-10-15T14:46:40.028Z,17.28
2022-10-15T14:49:45.764Z,17.13
2022-10-15T14:52:27.010Z,16.99
2022-10-15T14:55:11.888Z,16.96
2022-10-15T14:57:48.996Z,16.92
2022-10-15T15:00:33.700Z,16.98
2022-10-15T15:03:33.571Z,16.90
2022-10-15T15:09:09.738Z,16.62
2022-10-15T15:12:27.996Z,16.72
2022-10-15T15:15:01.215Z,16.68
2022-10-15T15:17:37.787Z,16.73
2022-10-15T15:20:15.447Z,16.61
2022-10-15T15:22:53.463Z,16.57
2022-10-15T15:25:38.067Z,16.53
2022-10-15T15:28:20.333Z,16.57
2022-10-15T15:30:58.701Z,16.67
2022-10-15T15:33:32.816Z,16.60
2022-10-15T15:36:14.197Z,16.71
2022-10-15T15:38:48.153Z,16.77
2022-10-15T15:41:41.873Z,16.72
2022-10-15T15:44:19.533Z,16.98
2022-10-15T15:46:55.160Z,16.93
2022-10-15T15:49:27.637Z,16.92
2022-10-15T15:52:00.578Z,16.82
2022-10-15T15:54:33.428Z,16.82
2022-10-15T15:57:06.923Z,16.76
2022-10-15T15:59:39.983Z,16.58
2022-10-15T16:02:15.363Z,16.51
2022-10-15T16:04:47.841Z,16.41
2022-10-15T16:07:22.823Z,16.36
2022-10-15T16:09:57.620Z,16.26
2022-10-15T16:12:30.111Z,16.21
2022-10-15T16:15:02.596Z,16.08
2022-10-15T16:17:35.354Z,15.96
2022-10-15T16:20:08.981Z,15.72
2022-10-15T16:22:42.651Z,15.75
2022-10-15T16:25:15.252Z,15.73
2022-10-15T16:27:51.887Z,15.65
2022-10-15T16:30:24.557Z,15.52
2022-10-15T16:32:57.108Z,15.43
2022-10-15T16:35:31.724Z,15.28
2022-10-15T16:38:04.390Z,15.19
2022-10-15T16:40:40.195Z,15.06
2022-10-15T16:43:12.780Z,14.94
2022-10-15T16:45:54.273Z,14.82
2022-10-15T16:48:35.931Z,14.74
2022-10-15T16:51:14.081Z,14.67
2022-10-15T16:53:50.445Z,14.56
2022-10-15T16:56:29.349Z,14.44
2022-10-15T16:59:01.831Z,14.35
2022-10-15T17:01:34.442Z,14.19
2022-10-15T17:04:07.058Z,14.17
2022-10-15T17:06:39.526Z,14.07
2022-10-15T17:09:12.060Z,13.97
2022-10-15T17:11:46.892Z,13.88
2022-10-15T17:14:19.473Z,13.75
2022-10-15T17:16:53.159Z,13.69
2022-10-15T17:19:29.031Z,13.58
2022-10-15T17:22:04.320Z,13.45
2022-10-15T17:24:36.784Z,13.49
2022-10-15T17:27:10.826Z,13.42
2022-10-15T17:29:43.413Z,13.50
2022-10-15T17:32:15.959Z,13.56
2022-10-15T17:34:48.558Z,13.59
2022-10-15T17:37:21.128Z,13.69
2022-10-15T17:39:54.047Z,13.76
2022-10-15T17:42:27.013Z,13.82
2022-10-15T17:44:59.875Z,13.81
2022-10-15T17:47:32.349Z,13.89
2022-10-15T17:50:06.655Z,13.84
2022-10-15T17:52:39.138Z,13.92
2022-10-15T17:55:11.617Z,13.92
2022-10-15T17:57:44.109Z,13.81
2022-10-15T18:00:16.604Z,13.70
2022-10-15T18:02:50.241Z,13.77
2022-10-15T18:05:22.680Z,13.78
2022-10-15T18:07:55.125Z,13.72
2022-10-15T18:10:27.590Z,13.71
2022-10-15T18:13:00.075Z,13.64
2022-10-15T18:15:37.951Z,13.62
2022-10-15T18:18:11.385Z,13.73
2022-10-15T18:20:45.681Z,13.73
2022-10-15T18:23:18.571Z,13.65
2022-10-15T18:26:14.684Z,13.73
2022-10-15T18:28:53.183Z,13.74
2022-10-15T18:31:26.225Z,13.74
2022-10-15T18:33:58.865Z,13.73
2022-10-15T18:36:32.262Z,13.61
2022-10-15T18:39:04.774Z,13.62
2022-10-15T18:41:38.212Z,13.66
2022-10-15T18:44:17.842Z,13.58
2022-10-15T18:46:51.800Z,13.55
2022-10-15T18:49:24.404Z,13.53
2022-10-15T18:51:57.385Z,13.48
2022-10-15T18:54:36.254Z,13.49
2022-10-15T18:57:08.868Z,13.43
2022-10-15T18:59:41.493Z,13.43
2022-10-15T19:02:14.083Z,13.46
2022-10-15T19:04:46.565Z,13.35
2022-10-15T19:07:19.528Z,13.35
2022-10-15T19:09:52.259Z,13.26
2022-10-15T19:12:24.978Z,13.29
2022-10-15T19:14:57.671Z,13.17
2022-10-15T19:17:30.147Z,13.25
2022-10-15T19:20:02.786Z,13.25
2022-10-15T19:22:35.270Z,13.20
2022-10-15T19:25:08.420Z,13.19
2022-10-15T19:27:41.502Z,13.21
2022-10-15T19:30:14.052Z,13.15
2022-10-15T19:32:47.220Z,13.14
2022-10-15T19:35:19.833Z,13.10
2022-10-15T19:37:52.350Z,13.20
2022-10-15T19:40:24.809Z,13.14
2022-10-15T19:42:57.312Z,13.19
2022-10-15T19:45:30.613Z,13.10
2022-10-15T19:48:03.282Z,13.15
2022-10-15T19:50:38.594Z,13.18
2022-10-15T19:53:16.595Z,13.16
2022-10-15T19:56:02.529Z,13.07
2022-10-15T19:58:36.422Z,13.18
2022-10-15T20:01:11.303Z,13.14
2022-10-15T20:03:44.075Z,13.18
2022-10-15T20:06:17.073Z,13.15
2022-10-15T20:08:50.257Z,13.16
2022-10-15T20:11:24.435Z,13.12
2022-10-15T20:13:59.184Z,12.98
2022-10-15T20:16:33.425Z,13.03
2022-10-15T20:19:06.320Z,13.11
2022-10-15T20:21:38.960Z,13.09
2022-10-15T20:24:11.618Z,13.11
2022-10-15T20:26:44.158Z,13.07
2022-10-15T20:29:17.421Z,13.03
2022-10-15T20:31:51.278Z,12.99
2022-10-15T20:34:23.784Z,12.93
2022-10-15T20:36:56.274Z,12.92
2022-10-15T20:39:28.967Z,12.85
2022-10-15T20:42:01.505Z,12.81
2022-10-15T20:44:34.010Z,12.78
2022-10-15T20:47:14.062Z,12.80
2022-10-15T20:49:52.874Z,12.77
2022-10-15T20:52:25.761Z,12.73
2022-10-15T20:54:58.483Z,12.72
2022-10-15T20:57:31.702Z,12.74
2022-10-15T21:00:08.833Z,12.70
2022-10-15T21:02:41.852Z,12.71
2022-10-15T21:05:14.423Z,12.69
2022-10-15T21:07:46.914Z,12.73
2022-10-15T21:10:19.442Z,12.71
2022-10-15T21:12:52.616Z,12.65
2022-10-15T21:15:25.079Z,12.61
2022-10-15T21:17:58.460Z,12.58
2022-10-15T21:20:30.945Z,12.54
2022-10-15T21:23:03.467Z,12.55
2022-10-15T21:25:35.997Z,12.51
2022-10-15T21:28:08.541Z,12.49
2022-10-15T21:30:41.604Z,12.49
2022-10-15T21:33:14.104Z,12.40
2022-10-15T21:35:46.557Z,12.42
2022-10-15T21:38:19.064Z,12.40
2022-10-15T21:40:51.597Z,12.34
2022-10-15T21:43:24.104Z,12.28
2022-10-15T21:46:03.713Z,12.22
2022-10-15T21:48:37.928Z,12.33
2022-10-15T21:51:17.040Z,12.28
2022-10-15T21:53:50.137Z,12.27
2022-10-15T21:56:23.496Z,12.24
2022-10-15T21:58:56.329Z,12.19
2022-10-15T22:01:32.649Z,12.16
2022-10-15T22:04:09.556Z,12.16
2022-10-15T22:06:42.099Z,12.12
2022-10-15T22:09:14.662Z,12.10
2022-10-15T22:11:47.145Z,12.09
2022-10-15T22:14:19.703Z,12.08
2022-10-15T22:16:52.178Z,11.97
2022-10-15T22:19:24.634Z,11.99
2022-10-15T22:21:57.128Z,11.93
2022-10-15T22:24:29.667Z,11.87
2022-10-15T22:27:02.177Z,11.82
2022-10-15T22:29:35.531Z,11.83
2022-10-15T22:32:08.080Z,11.86
2022-10-15T22:34:40.635Z,11.77
2022-10-15T22:37:13.145Z,11.85
2022-10-15T22:39:45.702Z,11.91
2022-10-15T22:42:18.160Z,11.95
2022-10-15T22:44:50.725Z,11.97
2022-10-15T22:47:23.326Z,11.88
2022-10-15T22:49:55.932Z,11.92
2022-10-15T22:52:28.745Z,11.87
2022-10-15T22:55:01.451Z,11.95
2022-10-15T22:57:34.095Z,11.94
2022-10-15T23:00:07.751Z,11.91
2022-10-15T23:02:40.243Z,11.92
2022-10-15T23:05:12.746Z,11.96
2022-10-15T23:07:45.289Z,11.90
2022-10-15T23:10:17.897Z,12.06
2022-10-15T23:12:50.413Z,12.07
2022-10-15T23:15:22.910Z,11.97
2022-10-15T23:17:55.424Z,11.95
2022-10-15T23:20:27.923Z,12.01
2022-10-15T23:23:00.421Z,12.05
2022-10-15T23:25:39.319Z,12.05
2022-10-15T23:28:11.795Z,11.98
2022-10-15T23:30:44.285Z,11.92
2022-10-15T23:33:16.854Z,11.97
2022-10-15T23:36:04.332Z,11.94
2022-10-15T23:38:36.834Z,11.92
2022-10-15T23:41:10.416Z,11.93
2022-10-15T23:43:42.989Z,11.96
2022-10-15T23:46:16.028Z,11.92
2022-10-15T23:48:49.238Z,11.93
2022-10-15T23:51:25.943Z,11.97
2022-10-15T23:54:00.669Z,11.95
2022-10-15T23:56:34.805Z,12.03
2022-10-15T23:59:08.074Z,12.03
